Whitingham, VT

9:21 AM EDT on September 20, 2014 (GMT -0400)
Pittsfield Municipal | Change Station
CLOSE
Current Station
Airport
Location: Pittsfield,
Elevation: 1194 ft
Nearby Weather Stations

Elev 1194 ft 42.43 °N, 73.29 °W | Updated 16 minutes ago

Overcast
Overcast
53 °F
Feels Like 53 °F
N
8
Wind Variable Wind from SSE

Today
High -- | Low -- °F
--% Chance of Precip.
Yesterday
High -- | Low -- °F
Precip. -- in
6:36 AM 6:52 PM
Waning Crescent, 12% visible
Pressure 30.26 in
Visibility 10.0 miles
Clouds Scattered Clouds 1100 ft
Overcast 1800 ft
Dew Point 50 °F
Humidity 89%
Rainfall 0.00 in
Snow Depth Not available.
UV 1 out of 12
Pollen 3.20 out of 12
Ozone Good
PM2.5 Good
Flu Activity Not available.
SPECI KPSF 201305Z AUTO 16007KT 070V180 10SM SCT011 OVC018 12/10 A3026 RMK AO2 T01170100

More Conditions Fewer Conditions

Pressure 30.26 in
Visibility 10.0 miles
Clouds Scattered Clouds 1100 ft
Overcast 1800 ft
Dew Point 50 °F
Humidity 89%
Rainfall 0.00 in
Snow Depth Not available.
UV 1 out of 12
Pollen 3.20 out of 12
Ozone Good
PM2.5 Good
Flu Activity Not available.
SPECI KPSF 201305Z AUTO 16007KT 070V180 10SM SCT011 OVC018 12/10 A3026 RMK AO2 T01170100

More Conditions Fewer Conditions

10-Day Weather Forecast

Almanac

Astronomy

Sep. 20, 2014 Rise Set
Actual Time 6:36 AM EDT 6:52 PM EDT
Civil Twilight 6:08 AM EDT 7:20 PM EDT
Nautical Twilight 5:35 AM EDT 7:53 PM EDT
Astronomical Twilight 5:01 AM EDT 8:27 PM EDT
Moon 3:09 AM EDT 4:57 PM EDT
Length of Visible Light 13h 12m
Length of Day
12h 15m
Tomorrow will be 2m 52s shorter.
Waning Crescent, 12% of the Moon is Illuminated
Today
Waning Crescent
Sep 24
New
Oct 1
First Quarter
Oct 8
Full
Oct 15
Last Quarter

Today's Extremes

State Highs State Lows

Community

WunderPhotos

Upload Photos

1,754,857 photos uploaded!

Nearby

Air Quality

  Air Quality AQ Index Pollutant
Yesterday Good
OZONE
Current Good
OZONE
Current Good
PM2.5
Saturday Good
OZONE
Saturday Good
PM2.5
Sunday Good
PM2.5
Monday Good
PM2.5

Snow Depth

Station Depth Elevation
No new snow has been reported.

Earthquake Activity

City Distance Mag. Time & Date
No recent earthquake activity has been reported nearby.
Minimum magnitude displayed is 2.5.

Coastal Water Temperatures

Place Temperature
No Stations Reporting

Nearby Weather Stations